createdAt,value
2019-03-15T00:00:27.298Z,0
2019-03-15T00:01:09.407Z,0
2019-03-15T00:01:54.040Z,0
2019-03-15T00:02:35.045Z,0
2019-03-15T00:03:20.407Z,0
2019-03-15T00:04:00.781Z,0
2019-03-15T00:04:42.090Z,0
2019-03-15T00:05:23.431Z,0
2019-03-15T00:06:03.840Z,0
2019-03-15T00:06:44.215Z,0
2019-03-15T00:07:24.789Z,0
2019-03-15T00:08:05.162Z,0
2019-03-15T00:08:45.558Z,0
2019-03-15T00:09:25.936Z,0
2019-03-15T00:10:06.373Z,0
2019-03-15T00:10:46.795Z,0
2019-03-15T00:11:27.291Z,0
2019-03-15T00:12:07.491Z,0
2019-03-15T00:12:47.946Z,0
2019-03-15T00:13:28.248Z,0
2019-03-15T00:14:08.653Z,0
2019-03-15T00:14:50.925Z,0
2019-03-15T00:15:31.312Z,0
2019-03-15T00:16:13.275Z,0
2019-03-15T00:16:53.679Z,0
2019-03-15T00:17:34.056Z,0
2019-03-15T00:18:14.677Z,0
2019-03-15T00:18:54.894Z,0
2019-03-15T00:19:35.349Z,0
2019-03-15T00:20:15.787Z,0
2019-03-15T00:20:56.097Z,0
2019-03-15T00:21:36.420Z,0
2019-03-15T00:22:16.814Z,0
2019-03-15T00:22:57.375Z,0
2019-03-15T00:23:37.618Z,0
2019-03-15T00:24:18.755Z,0
2019-03-15T00:24:58.407Z,0
2019-03-15T00:25:38.900Z,0
2019-03-15T00:26:19.249Z,0
2019-03-15T00:26:59.552Z,0
2019-03-15T00:27:40.033Z,0
2019-03-15T00:28:20.358Z,0
2019-03-15T00:29:00.732Z,0
2019-03-15T00:29:41.267Z,0
2019-03-15T00:30:21.501Z,0
2019-03-15T00:31:04.607Z,0
2019-03-15T00:31:44.965Z,0
2019-03-15T00:32:25.462Z,0
2019-03-15T00:33:05.783Z,0
2019-03-15T00:33:46.323Z,0
2019-03-15T00:34:28.433Z,0
2019-03-15T00:35:09.461Z,0
2019-03-15T00:35:49.174Z,0
2019-03-15T00:38:03.342Z,0
2019-03-15T00:38:42.804Z,0
2019-03-15T00:39:23.397Z,0
2019-03-15T00:40:03.882Z,0
2019-03-15T00:40:44.898Z,0
2019-03-15T00:41:25.364Z,0
2019-03-15T00:42:05.759Z,0
2019-03-15T00:42:46.289Z,0
2019-03-15T00:43:26.634Z,0
2019-03-15T00:44:07.995Z,0
2019-03-15T00:44:48.503Z,0
2019-03-15T00:45:29.119Z,0
2019-03-15T00:46:10.417Z,0
2019-03-15T00:46:50.843Z,0
2019-03-15T00:47:31.878Z,0
2019-03-15T00:48:12.281Z,0
2019-03-15T00:48:52.638Z,0
2019-03-15T00:49:34.960Z,0
2019-03-15T00:50:15.139Z,0
2019-03-15T00:50:55.836Z,0
2019-03-15T00:51:38.019Z,0
2019-03-15T00:52:18.443Z,0
2019-03-15T00:52:59.765Z,0
2019-03-15T00:53:40.189Z,0
2019-03-15T00:54:20.794Z,0
2019-03-15T00:55:03.346Z,0
2019-03-15T00:55:43.597Z,0
2019-03-15T00:56:24.037Z,0
2019-03-15T00:57:04.499Z,0
2019-03-15T00:57:45.876Z,0
2019-03-15T00:58:26.237Z,0
2019-03-15T00:59:06.701Z,0
2019-03-15T00:59:47.531Z,0
2019-03-15T01:00:29.568Z,0
2019-03-15T01:01:10.185Z,0
2019-03-15T01:01:50.747Z,0
2019-03-15T01:02:30.827Z,0
2019-03-15T01:03:11.363Z,0
2019-03-15T01:03:51.599Z,0
2019-03-15T01:04:32.953Z,0
2019-03-15T01:05:13.332Z,0
2019-03-15T01:05:55.613Z,0
2019-03-15T01:06:36.051Z,0
2019-03-15T01:07:16.352Z,0
2019-03-15T01:07:56.749Z,0
2019-03-15T01:10:12.007Z,0
2019-03-15T01:10:56.000Z,0
2019-03-15T01:11:36.421Z,0
2019-03-15T01:12:17.748Z,0
2019-03-15T01:12:58.210Z,0
2019-03-15T01:13:38.746Z,0
2019-03-15T01:14:19.070Z,0
2019-03-15T01:15:00.383Z,0
2019-03-15T01:15:43.065Z,0
2019-03-15T01:16:24.329Z,0
2019-03-15T01:17:04.784Z,0
2019-03-15T01:17:46.116Z,0
2019-03-15T01:18:28.369Z,0
2019-03-15T01:19:08.816Z,0
2019-03-15T01:19:50.178Z,0
2019-03-15T01:20:32.377Z,0
2019-03-15T01:21:12.825Z,0
2019-03-15T01:21:53.190Z,0
2019-03-15T01:22:33.542Z,0
2019-03-15T01:23:14.204Z,0
2019-03-15T01:23:54.663Z,0
2019-03-15T01:24:35.139Z,0
2019-03-15T01:25:15.406Z,0
2019-03-15T01:25:55.795Z,0
2019-03-15T01:26:36.256Z,0
2019-03-15T01:27:16.675Z,0
2019-03-15T01:27:57.011Z,0
2019-03-15T01:28:38.243Z,0
2019-03-15T01:29:18.673Z,0
2019-03-15T01:29:59.133Z,0
2019-03-15T01:30:39.475Z,0
2019-03-15T01:31:19.922Z,0
2019-03-15T01:32:00.187Z,0
2019-03-15T01:32:40.578Z,0
2019-03-15T01:33:20.980Z,0
2019-03-15T01:34:01.391Z,0
2019-03-15T01:34:43.489Z,0
2019-03-15T01:35:24.029Z,0
2019-03-15T01:36:04.289Z,0
2019-03-15T01:36:50.416Z,0
2019-03-15T01:37:30.778Z,0
2019-03-15T01:38:17.895Z,0
2019-03-15T01:38:58.182Z,0
2019-03-15T01:39:39.115Z,0
2019-03-15T01:40:19.847Z,0
2019-03-15T01:41:00.262Z,0
2019-03-15T01:41:40.791Z,0
2019-03-15T01:42:25.588Z,0
2019-03-15T01:43:06.904Z,0
2019-03-15T01:43:47.720Z,0
2019-03-15T01:44:28.633Z,0
2019-03-15T01:45:10.658Z,0
2019-03-15T01:45:54.551Z,0
2019-03-15T01:46:35.209Z,0
2019-03-15T01:47:17.546Z,0
2019-03-15T01:47:58.086Z,0
2019-03-15T01:48:39.410Z,0
2019-03-15T01:49:19.781Z,0
2019-03-15T01:50:00.307Z,0
2019-03-15T01:50:41.473Z,0
2019-03-15T01:51:21.891Z,0
2019-03-15T01:52:03.915Z,0
2019-03-15T01:52:44.304Z,0
2019-03-15T01:53:24.706Z,0
2019-03-15T01:54:05.062Z,0
2019-03-15T01:54:45.456Z,0
2019-03-15T01:55:25.844Z,0
2019-03-15T01:56:08.264Z,0
2019-03-15T01:56:48.572Z,0
2019-03-15T01:57:28.987Z,0
2019-03-15T01:58:10.379Z,0
2019-03-15T01:58:54.249Z,0
2019-03-15T01:59:34.647Z,0
2019-03-15T02:01:45.383Z,0
2019-03-15T02:02:26.901Z,0
2019-03-15T02:03:07.203Z,0
2019-03-15T02:03:49.196Z,0
2019-03-15T02:04:32.142Z,0
2019-03-15T02:05:16.582Z,0
2019-03-15T02:05:57.934Z,0
2019-03-15T02:06:38.394Z,0
2019-03-15T02:07:22.713Z,0
2019-03-15T02:08:03.116Z,0
2019-03-15T02:08:45.440Z,0
2019-03-15T02:09:25.886Z,0
2019-03-15T02:10:06.246Z,0
2019-03-15T02:10:48.467Z,0
2019-03-15T02:11:31.868Z,0
2019-03-15T02:12:13.084Z,0
2019-03-15T02:12:53.494Z,0
2019-03-15T02:13:34.911Z,0
2019-03-15T02:14:18.144Z,0
2019-03-15T02:14:59.701Z,0
2019-03-15T02:15:41.978Z,0
2019-03-15T02:16:22.409Z,0
2019-03-15T02:17:07.042Z,0
2019-03-15T02:17:47.659Z,0
2019-03-15T02:18:27.886Z,0
2019-03-15T02:19:10.285Z,0
2019-03-15T02:19:49.627Z,0
2019-03-15T02:20:30.070Z,0
2019-03-15T02:21:10.411Z,0
2019-03-15T02:21:50.851Z,0
2019-03-15T02:22:32.441Z,0
2019-03-15T02:23:14.900Z,0
2019-03-15T02:23:55.258Z,0
2019-03-15T02:24:35.932Z,0
2019-03-15T02:25:16.501Z,0
2019-03-15T02:26:00.129Z,0
2019-03-15T02:26:40.532Z,0
2019-03-15T02:27:20.875Z,0
2019-03-15T02:28:02.828Z,0
2019-03-15T02:28:43.182Z,0
2019-03-15T02:29:23.548Z,0
2019-03-15T02:30:03.960Z,0
2019-03-15T02:30:44.344Z,0
2019-03-15T02:31:24.751Z,0
2019-03-15T02:32:05.186Z,0
2019-03-15T02:32:45.513Z,0
2019-03-15T02:33:25.886Z,0
2019-03-15T02:34:10.316Z,0
2019-03-15T02:34:50.749Z,0
2019-03-15T02:35:31.133Z,0
2019-03-15T02:36:11.477Z,0
2019-03-15T02:36:52.203Z,0
2019-03-15T02:37:33.727Z,0
2019-03-15T02:38:16.457Z,0
2019-03-15T02:38:56.860Z,0
2019-03-15T02:39:38.953Z,0
2019-03-15T02:40:23.977Z,0
2019-03-15T02:41:05.074Z,0
2019-03-15T02:41:44.750Z,0
2019-03-15T02:42:26.021Z,0
2019-03-15T02:43:05.530Z,0
2019-03-15T02:43:46.163Z,0
2019-03-15T02:44:26.338Z,0
2019-03-15T02:45:06.732Z,0
2019-03-15T02:45:47.121Z,0
2019-03-15T02:46:27.512Z,0
2019-03-15T02:47:07.889Z,0
2019-03-15T02:47:50.250Z,0
2019-03-15T02:48:30.590Z,0
2019-03-15T02:49:11.432Z,0
2019-03-15T02:51:52.203Z,0
2019-03-15T02:52:32.621Z,0
2019-03-15T02:53:13.091Z,0
2019-03-15T02:53:53.461Z,0
2019-03-15T02:54:33.868Z,0
2019-03-15T02:55:14.278Z,0
2019-03-15T02:55:54.720Z,0
2019-03-15T02:56:35.086Z,0
2019-03-15T02:57:15.530Z,0
2019-03-15T02:57:55.884Z,0
2019-03-15T02:58:36.271Z,0
2019-03-15T02:59:18.393Z,0
2019-03-15T02:59:58.840Z,0
2019-03-15T03:00:39.168Z,0
2019-03-15T03:01:19.635Z,0
2019-03-15T03:02:02.075Z,0
2019-03-15T03:02:42.468Z,0
2019-03-15T03:03:22.865Z,0
2019-03-15T03:04:03.229Z,0
2019-03-15T03:04:43.614Z,0
2019-03-15T03:05:24.017Z,0
2019-03-15T03:06:04.389Z,0
2019-03-15T03:06:44.773Z,0
2019-03-15T03:07:25.177Z,0
2019-03-15T03:08:05.568Z,0
2019-03-15T03:08:45.971Z,0
2019-03-15T03:09:26.372Z,0
2019-03-15T03:10:06.783Z,0
2019-03-15T03:10:47.223Z,0
2019-03-15T03:11:27.631Z,0
2019-03-15T03:12:08.071Z,0
2019-03-15T03:12:48.591Z,0
2019-03-15T03:13:29.014Z,0
2019-03-15T03:14:09.388Z,0
2019-03-15T03:14:49.806Z,0
2019-03-15T03:15:30.244Z,0
2019-03-15T03:16:10.687Z,0
2019-03-15T03:16:51.093Z,0
2019-03-15T03:17:31.452Z,0
2019-03-15T03:18:11.995Z,0
2019-03-15T03:18:52.427Z,0
2019-03-15T03:19:32.827Z,0
2019-03-15T03:20:13.226Z,0
2019-03-15T03:20:53.651Z,0
2019-03-15T03:21:34.069Z,0
2019-03-15T03:22:14.493Z,0
2019-03-15T03:22:54.937Z,0
2019-03-15T03:23:35.290Z,0
2019-03-15T03:24:15.713Z,0
2019-03-15T03:24:56.134Z,0
2019-03-15T03:25:36.605Z,0
2019-03-15T03:26:16.960Z,0
2019-03-15T03:26:57.395Z,0
2019-03-15T03:27:37.798Z,0
2019-03-15T03:28:18.195Z,0
2019-03-15T03:28:58.613Z,0
2019-03-15T03:29:39.021Z,0
2019-03-15T03:30:19.439Z,0
2019-03-15T03:30:59.837Z,0
2019-03-15T03:31:40.341Z,0
2019-03-15T03:32:20.653Z,0
2019-03-15T03:33:01.047Z,0
2019-03-15T03:33:42.047Z,0
2019-03-15T03:34:21.889Z,0
2019-03-15T03:35:02.362Z,0
2019-03-15T03:35:42.691Z,0
2019-03-15T03:36:23.063Z,0
2019-03-15T03:37:03.506Z,0
2019-03-15T03:37:45.104Z,0
2019-03-15T03:38:24.311Z,0
2019-03-15T03:39:06.317Z,0
2019-03-15T03:39:45.105Z,0
2019-03-15T03:40:25.569Z,0
2019-03-15T03:41:06.714Z,0
2019-03-15T03:41:47.142Z,0
2019-03-15T03:42:27.559Z,0
2019-03-15T03:43:08.094Z,0
2019-03-15T03:43:48.607Z,0
2019-03-15T03:44:28.875Z,0
2019-03-15T03:45:09.347Z,0
2019-03-15T03:45:49.745Z,0
2019-03-15T03:46:30.085Z,0
2019-03-15T03:47:10.489Z,0
2019-03-15T03:47:50.908Z,0
2019-03-15T03:48:31.327Z,0
2019-03-15T03:49:11.747Z,0
2019-03-15T03:49:52.180Z,0
2019-03-15T03:50:32.608Z,0
2019-03-15T03:51:13.042Z,0
2019-03-15T03:51:53.388Z,0
2019-03-15T03:52:33.799Z,0
2019-03-15T03:53:14.188Z,0
2019-03-15T03:53:54.581Z,0
2019-03-15T03:54:35.010Z,0
2019-03-15T03:55:15.427Z,0
2019-03-15T03:55:55.834Z,0
2019-03-15T03:56:36.252Z,0
2019-03-15T03:57:16.675Z,0
2019-03-15T03:57:57.081Z,0
2019-03-15T03:58:37.503Z,0
2019-03-15T03:59:17.919Z,0
2019-03-15T03:59:58.690Z,0
2019-03-15T04:00:39.031Z,0
2019-03-15T04:01:19.417Z,0
2019-03-15T04:01:59.836Z,0
2019-03-15T04:02:40.408Z,0
2019-03-15T04:03:20.835Z,0
2019-03-15T04:04:01.248Z,0
2019-03-15T04:04:41.687Z,0
2019-03-15T04:05:22.078Z,0
2019-03-15T04:06:02.852Z,0
2019-03-15T04:06:43.337Z,0
2019-03-15T04:07:23.753Z,0
2019-03-15T04:08:04.161Z,0
2019-03-15T04:08:44.567Z,0
2019-03-15T04:09:24.952Z,0
2019-03-15T04:10:05.715Z,0
2019-03-15T04:10:45.740Z,0
2019-03-15T04:11:26.207Z,0
2019-03-15T04:12:06.507Z,0
2019-03-15T04:12:47.188Z,0
2019-03-15T04:13:27.379Z,0
2019-03-15T04:14:07.744Z,0
2019-03-15T04:14:48.108Z,0
2019-03-15T04:15:28.554Z,0
2019-03-15T04:16:08.988Z,0
2019-03-15T04:16:49.464Z,0
2019-03-15T04:17:29.758Z,0
2019-03-15T04:18:27.702Z,0
2019-03-15T04:19:08.105Z,0
2019-03-15T04:19:48.820Z,0
2019-03-15T04:20:29.179Z,0
2019-03-15T04:21:09.588Z,0
2019-03-15T04:21:52.680Z,0
2019-03-15T04:22:33.948Z,0
2019-03-15T04:23:14.335Z,0
2019-03-15T04:23:54.758Z,0
2019-03-15T04:24:35.189Z,0
2019-03-15T04:25:16.493Z,0
2019-03-15T04:25:58.688Z,0
2019-03-15T04:26:39.159Z,0
2019-03-15T04:27:21.634Z,0
2019-03-15T04:28:01.837Z,0
2019-03-15T04:28:42.359Z,0
2019-03-15T05:11:04.497Z,0
2019-03-15T05:12:07.810Z,0
2019-03-15T05:13:06.246Z,0
2019-03-15T05:15:52.842Z,0
2019-03-15T05:16:34.212Z,0
2019-03-15T05:17:14.857Z,0
2019-03-15T05:17:55.931Z,0
2019-03-15T05:18:37.170Z,0
2019-03-15T05:19:18.089Z,0
2019-03-15T05:19:58.689Z,0
2019-03-15T05:20:39.573Z,0
2019-03-15T05:21:22.383Z,0
2019-03-15T05:22:03.214Z,0
2019-03-15T05:22:48.393Z,0
2019-03-15T05:23:40.406Z,0
2019-03-15T05:33:23.301Z,0
2019-03-15T05:34:04.760Z,0
2019-03-15T05:34:45.166Z,0
2019-03-15T05:35:25.534Z,0
2019-03-15T05:36:05.961Z,0
2019-03-15T05:36:46.378Z,0
2019-03-15T05:37:26.747Z,0
2019-03-15T05:38:07.226Z,0
2019-03-15T05:38:47.538Z,0
2019-03-15T05:39:27.885Z,0
2019-03-15T05:40:08.299Z,0
2019-03-15T05:40:48.756Z,0
2019-03-15T05:41:29.091Z,0
2019-03-15T05:42:09.456Z,0
2019-03-15T05:42:49.859Z,0
2019-03-15T05:43:30.280Z,0
2019-03-15T05:44:10.674Z,0
2019-03-15T05:44:51.069Z,0
2019-03-15T05:45:31.445Z,0
2019-03-15T05:46:11.852Z,0
2019-03-15T05:46:52.244Z,0
2019-03-15T05:47:32.621Z,0
2019-03-15T05:48:14.000Z,0
2019-03-15T05:48:54.512Z,0
2019-03-15T05:49:35.205Z,0
2019-03-15T05:50:15.583Z,0
2019-03-15T05:50:55.981Z,0
2019-03-15T05:51:36.464Z,0
2019-03-15T05:52:16.839Z,0
2019-03-15T05:52:57.115Z,0
2019-03-15T05:53:37.502Z,0
2019-03-15T05:54:17.888Z,0
2019-03-15T05:54:58.270Z,0
2019-03-15T05:55:38.641Z,0
2019-03-15T05:56:19.058Z,0
2019-03-15T05:56:59.489Z,0
2019-03-15T05:57:39.842Z,0
2019-03-15T05:58:21.879Z,0
2019-03-15T05:59:00.627Z,0
2019-03-15T05:59:41.071Z,0
2019-03-15T06:00:21.423Z,0
2019-03-15T06:01:02.393Z,0
2019-03-15T06:01:42.833Z,0
2019-03-15T06:02:34.747Z,0
2019-03-15T06:03:15.777Z,0
2019-03-15T06:03:56.204Z,0
2019-03-15T06:04:36.559Z,0
2019-03-15T06:05:17.277Z,0
2019-03-15T06:07:30.153Z,0
2019-03-15T06:08:10.728Z,0
2019-03-15T06:08:54.463Z,0
2019-03-15T06:09:34.891Z,0
2019-03-15T06:10:15.271Z,0
2019-03-15T06:10:55.659Z,0
2019-03-15T06:11:36.008Z,0
2019-03-15T06:12:16.479Z,0
2019-03-15T06:12:56.815Z,0
2019-03-15T06:13:37.228Z,0
2019-03-15T06:14:18.574Z,0
2019-03-15T06:14:59.041Z,0
2019-03-15T06:15:41.162Z,0
2019-03-15T06:16:22.292Z,0
2019-03-15T06:17:02.713Z,0
2019-03-15T06:17:43.065Z,0
2019-03-15T06:18:23.519Z,0
2019-03-15T06:19:04.928Z,0
2019-03-15T06:19:59.182Z,0
2019-03-15T06:20:39.542Z,0
2019-03-15T06:21:19.949Z,0
2019-03-15T06:22:00.341Z,0
2019-03-15T06:24:38.025Z,0
2019-03-15T06:25:18.552Z,0
2019-03-15T06:25:58.855Z,0
2019-03-15T06:26:39.449Z,0
2019-03-15T06:27:19.889Z,0
2019-03-15T06:28:00.582Z,0
2019-03-15T06:28:41.219Z,0
2019-03-15T06:29:21.553Z,0
2019-03-15T06:30:01.857Z,0
2019-03-15T06:30:44.146Z,0
2019-03-15T06:31:24.594Z,0
2019-03-15T06:32:05.143Z,0
2019-03-15T06:32:45.500Z,0
2019-03-15T06:33:28.524Z,0
2019-03-15T06:34:06.380Z,0
2019-03-15T06:34:46.804Z,0
2019-03-15T06:35:27.263Z,0
2019-03-15T06:36:07.591Z,0
2019-03-15T06:36:48.050Z,0
2019-03-15T06:37:28.395Z,0
2019-03-15T06:40:03.316Z,0
2019-03-15T06:40:43.731Z,0
2019-03-15T06:41:24.179Z,0
2019-03-15T06:42:04.597Z,0
2019-03-15T06:42:45.004Z,0
2019-03-15T06:43:25.487Z,0
2019-03-15T06:44:06.389Z,0
2019-03-15T06:44:57.272Z,0
2019-03-15T06:45:28.691Z,0
2019-03-15T06:46:11.200Z,0
2019-03-15T06:46:50.933Z,0
2019-03-15T06:47:31.263Z,0
2019-03-15T06:48:11.637Z,0
2019-03-15T06:50:27.676Z,0
2019-03-15T06:51:09.284Z,0
2019-03-15T06:51:49.307Z,0
2019-03-15T06:52:29.732Z,0
2019-03-15T06:53:10.151Z,0
2019-03-15T06:53:50.668Z,0
2019-03-15T06:54:32.505Z,0
2019-03-15T06:55:13.112Z,0
2019-03-15T06:55:54.320Z,0
2019-03-15T06:56:34.776Z,0
2019-03-15T06:57:15.882Z,0
2019-03-15T06:57:56.319Z,0
2019-03-15T06:58:36.894Z,0
2019-03-15T06:59:17.494Z,0
2019-03-15T06:59:59.656Z,0
2019-03-15T07:00:41.818Z,0
2019-03-15T07:01:21.976Z,0
2019-03-15T07:02:03.767Z,0
2019-03-15T07:02:44.188Z,0
2019-03-15T07:03:24.535Z,0
2019-03-15T07:04:07.270Z,0
2019-03-15T07:04:49.120Z,0
2019-03-15T07:05:29.556Z,0
2019-03-15T07:06:10.446Z,0
2019-03-15T07:06:50.689Z,0
2019-03-15T07:07:31.027Z,0
2019-03-15T07:08:11.432Z,0
2019-03-15T07:08:51.882Z,0
2019-03-15T07:09:34.138Z,0
2019-03-15T07:10:14.001Z,0
2019-03-15T07:10:54.537Z,0
2019-03-15T07:11:35.007Z,0
2019-03-15T07:12:15.499Z,0
2019-03-15T07:12:55.836Z,0
2019-03-15T07:13:36.229Z,0
2019-03-15T07:14:16.665Z,0
2019-03-15T07:16:38.923Z,0
2019-03-15T07:17:19.332Z,0
2019-03-15T07:18:00.951Z,0
2019-03-15T07:18:40.700Z,0
2019-03-15T07:19:25.878Z,0
2019-03-15T07:20:01.543Z,0
2019-03-15T07:20:41.939Z,0
2019-03-15T07:21:22.300Z,0
2019-03-15T07:22:04.401Z,0
2019-03-15T07:22:44.861Z,0
2019-03-15T07:23:25.205Z,0
2019-03-15T07:24:05.582Z,0
2019-03-15T07:24:46.846Z,0
2019-03-15T07:25:27.834Z,0
2019-03-15T07:26:08.837Z,0
2019-03-15T07:26:51.497Z,0
2019-03-15T07:27:32.268Z,0
2019-03-15T07:28:13.683Z,0
2019-03-15T07:28:54.279Z,0
2019-03-15T07:29:35.419Z,5
2019-03-15T07:30:17.314Z,5
2019-03-15T07:30:58.244Z,0
2019-03-15T07:31:39.538Z,0
2019-03-15T07:32:20.526Z,0
2019-03-15T07:33:01.516Z,0
2019-03-15T07:33:43.900Z,0
2019-03-15T07:34:24.864Z,0
2019-03-15T07:37:04.734Z,5
2019-03-15T07:37:45.931Z,5
2019-03-15T07:38:25.999Z,5
2019-03-15T07:39:07.693Z,5
2019-03-15T07:39:47.787Z,5
2019-03-15T07:40:29.193Z,5
2019-03-15T07:41:09.804Z,5
2019-03-15T07:41:49.841Z,5
2019-03-15T07:42:30.412Z,5
2019-03-15T07:43:11.717Z,5
2019-03-15T07:43:53.443Z,5
2019-03-15T07:44:34.330Z,5
2019-03-15T07:45:14.757Z,5
2019-03-15T07:45:55.213Z,5
2019-03-15T07:46:36.122Z,5
2019-03-15T07:47:16.529Z,5
2019-03-15T07:47:57.305Z,5
2019-03-15T07:48:38.592Z,5
2019-03-15T07:49:22.205Z,5
2019-03-15T07:50:02.510Z,5
2019-03-15T07:50:43.055Z,5
2019-03-15T07:51:24.000Z,5
2019-03-15T07:52:04.400Z,5
2019-03-15T07:52:45.097Z,5
2019-03-15T07:53:25.484Z,5
2019-03-15T07:54:06.143Z,5
2019-03-15T07:54:46.552Z,5
2019-03-15T07:55:28.407Z,5
2019-03-15T07:56:11.452Z,5
2019-03-15T07:56:53.197Z,5
2019-03-15T07:57:33.348Z,5
2019-03-15T07:58:14.339Z,5
2019-03-15T07:58:55.851Z,5
2019-03-15T07:59:36.469Z,5
2019-03-15T08:00:17.026Z,5
2019-03-15T08:00:58.403Z,5
2019-03-15T08:01:39.197Z,5
2019-03-15T08:02:19.756Z,5
2019-03-15T08:03:01.057Z,5
2019-03-15T08:03:42.818Z,5
2019-03-15T08:04:26.821Z,5
2019-03-15T08:05:07.245Z,5
2019-03-15T08:05:48.098Z,5
2019-03-15T08:06:34.914Z,5
2019-03-15T08:07:11.231Z,5
2019-03-15T08:07:54.325Z,5
2019-03-15T08:08:39.996Z,5
2019-03-15T08:09:22.964Z,5
2019-03-15T08:10:04.592Z,5
2019-03-15T08:10:44.917Z,5
2019-03-15T08:11:27.740Z,5
2019-03-15T08:12:08.790Z,5
2019-03-15T08:12:51.688Z,5
2019-03-15T08:13:33.432Z,5
2019-03-15T08:14:14.540Z,5
2019-03-15T08:14:55.560Z,5
2019-03-15T08:15:37.410Z,5
2019-03-15T08:16:18.914Z,5
2019-03-15T08:17:01.554Z,5
2019-03-15T08:17:45.333Z,5
2019-03-15T08:18:27.444Z,5
2019-03-15T08:19:09.834Z,5
2019-03-15T08:19:53.358Z,5
2019-03-15T08:20:34.903Z,5
2019-03-15T08:21:18.134Z,5
2019-03-15T08:21:59.487Z,5
2019-03-15T08:22:39.849Z,5
2019-03-15T08:23:21.336Z,5
2019-03-15T08:24:02.002Z,5
2019-03-15T08:24:51.194Z,5
2019-03-15T08:25:25.407Z,5
2019-03-15T08:26:06.942Z,5
2019-03-15T08:26:47.372Z,5
2019-03-15T08:27:27.834Z,5
2019-03-15T08:28:10.183Z,5
2019-03-15T08:28:51.823Z,5
2019-03-15T08:29:34.226Z,10
2019-03-15T08:30:19.958Z,5
2019-03-15T08:31:14.971Z,10
2019-03-15T08:31:56.365Z,10
2019-03-15T08:32:36.843Z,10
2019-03-15T08:33:20.925Z,10
2019-03-15T08:34:01.314Z,10
2019-03-15T08:34:44.309Z,10
2019-03-15T08:35:28.444Z,10
2019-03-15T08:36:08.889Z,10
2019-03-15T08:36:52.747Z,10
2019-03-15T08:37:33.212Z,10
2019-03-15T08:38:14.589Z,10
2019-03-15T08:38:56.939Z,10
2019-03-15T08:39:37.397Z,10
2019-03-15T08:40:17.922Z,10
2019-03-15T08:40:59.145Z,10
2019-03-15T08:41:45.850Z,10
2019-03-15T08:42:30.034Z,10
2019-03-15T08:43:10.516Z,10
2019-03-15T08:43:53.931Z,10
2019-03-15T08:44:34.536Z,10
2019-03-15T08:45:18.076Z,10
2019-03-15T08:46:02.743Z,10
2019-03-15T08:46:39.938Z,10
2019-03-15T08:47:22.799Z,10
2019-03-15T08:48:10.049Z,10
2019-03-15T08:48:59.213Z,10
2019-03-15T08:49:40.473Z,10
2019-03-15T08:50:24.490Z,10
2019-03-15T08:51:10.387Z,10
2019-03-15T08:51:48.386Z,10
2019-03-15T08:52:30.998Z,10
2019-03-15T08:53:15.976Z,10
2019-03-15T08:53:57.026Z,10
2019-03-15T08:54:43.015Z,10
2019-03-15T08:55:23.359Z,10
2019-03-15T08:56:06.758Z,10
2019-03-15T08:56:49.124Z,10
2019-03-15T08:57:33.448Z,10
2019-03-15T08:58:20.349Z,10
2019-03-15T08:58:56.902Z,10
2019-03-15T08:59:52.273Z,10
2019-03-15T09:00:24.391Z,10
2019-03-15T09:01:04.874Z,10
2019-03-15T09:01:45.432Z,10
2019-03-15T09:02:25.764Z,10
2019-03-15T09:03:06.632Z,10
2019-03-15T09:03:47.159Z,10
2019-03-15T09:04:27.603Z,10
2019-03-15T09:05:09.331Z,10
2019-03-15T09:05:49.923Z,10
2019-03-15T09:06:34.554Z,10
2019-03-15T09:07:15.071Z,10
2019-03-15T09:07:56.270Z,10
2019-03-15T09:08:37.901Z,10
2019-03-15T09:09:20.400Z,10
2019-03-15T09:10:03.325Z,10
2019-03-15T09:10:44.858Z,10
2019-03-15T09:11:25.330Z,10
2019-03-15T09:12:05.832Z,10
2019-03-15T09:12:50.242Z,10
2019-03-15T09:13:31.765Z,10
2019-03-15T09:14:13.237Z,10
2019-03-15T09:14:54.013Z,10
2019-03-15T09:15:34.486Z,10
2019-03-15T09:16:17.574Z,10
2019-03-15T09:16:59.623Z,15
2019-03-15T09:17:43.908Z,15
2019-03-15T09:18:26.050Z,10
2019-03-15T09:19:07.463Z,15
2019-03-15T09:19:47.943Z,10
2019-03-15T09:20:30.750Z,10
2019-03-15T09:21:11.205Z,10
2019-03-15T09:21:53.570Z,10
2019-03-15T09:22:34.056Z,10
2019-03-15T09:23:14.395Z,15
2019-03-15T09:23:56.858Z,15
2019-03-15T09:24:38.937Z,15
2019-03-15T09:25:21.116Z,15
2019-03-15T09:26:01.043Z,15
2019-03-15T09:26:41.327Z,15
2019-03-15T09:27:24.678Z,15
2019-03-15T09:28:05.105Z,15
2019-03-15T09:28:45.599Z,15
2019-03-15T09:29:26.079Z,15
2019-03-15T09:30:06.447Z,15
2019-03-15T09:30:47.165Z,15
2019-03-15T09:31:27.571Z,15
2019-03-15T09:32:09.212Z,15
2019-03-15T09:32:50.957Z,15
2019-03-15T11:08:48.214Z,25
2019-03-15T11:09:30.531Z,25
2019-03-15T11:10:11.707Z,25
2019-03-15T11:10:52.086Z,25
2019-03-15T11:11:34.963Z,25
2019-03-15T11:12:16.920Z,25
2019-03-15T11:12:57.437Z,25
2019-03-15T11:13:41.733Z,25
2019-03-15T11:14:23.266Z,25
2019-03-15T11:15:07.834Z,20
2019-03-15T11:15:52.183Z,15
2019-03-15T11:16:36.622Z,15
2019-03-15T11:17:18.891Z,20
2019-03-15T11:18:01.360Z,25
2019-03-15T11:18:43.597Z,20
2019-03-15T11:19:27.615Z,20
2019-03-15T11:20:09.845Z,20
2019-03-15T11:20:50.254Z,20
2019-03-15T11:21:30.670Z,20
2019-03-15T11:22:14.639Z,25
2019-03-15T11:22:57.206Z,25
2019-03-15T11:23:37.532Z,25
2019-03-15T11:24:19.069Z,20
2019-03-15T11:24:59.637Z,20
2019-03-15T11:25:44.170Z,20
2019-03-15T11:26:29.506Z,20
2019-03-15T11:27:12.454Z,20
2019-03-15T11:27:53.476Z,20
2019-03-15T11:28:33.798Z,20
2019-03-15T11:29:15.820Z,20
2019-03-15T11:29:56.384Z,20
2019-03-15T11:30:40.062Z,20
2019-03-15T11:31:20.432Z,20
2019-03-15T11:32:00.889Z,25
2019-03-15T11:32:44.029Z,25
2019-03-15T11:33:24.355Z,25
2019-03-15T11:34:06.904Z,30
2019-03-15T11:34:47.308Z,30
2019-03-15T11:35:27.715Z,25
2019-03-15T11:36:08.336Z,20
2019-03-15T11:36:58.023Z,20
2019-03-15T11:37:33.351Z,25
2019-03-15T11:38:14.760Z,30
2019-03-15T11:38:55.386Z,35
2019-03-15T11:39:37.427Z,35
2019-03-15T11:40:19.221Z,30
2019-03-15T11:41:01.317Z,30
2019-03-15T11:41:45.382Z,30
2019-03-15T11:42:25.981Z,30
2019-03-15T11:43:08.198Z,30
2019-03-15T11:43:50.390Z,30
2019-03-15T11:44:31.643Z,30
2019-03-15T11:45:14.892Z,30
2019-03-15T11:45:56.474Z,35
2019-03-15T11:46:38.784Z,35
2019-03-15T11:47:21.271Z,30
2019-03-15T11:48:04.407Z,35
2019-03-15T11:48:43.997Z,30
2019-03-15T11:49:27.908Z,30
2019-03-15T11:50:06.657Z,30
2019-03-15T11:50:47.191Z,30
2019-03-15T11:51:27.636Z,30
2019-03-15T11:52:08.263Z,30
2019-03-15T11:52:50.684Z,30
2019-03-15T11:53:31.185Z,25
2019-03-15T11:54:11.959Z,30
2019-03-15T11:54:52.575Z,35
2019-03-15T11:55:33.165Z,30
2019-03-15T11:56:26.341Z,30
2019-03-15T11:56:58.205Z,30
2019-03-15T11:57:38.548Z,30
2019-03-15T11:58:19.826Z,25
2019-03-15T11:59:01.851Z,30
2019-03-15T11:59:42.370Z,30
2019-03-15T12:00:22.760Z,30
2019-03-15T12:01:03.071Z,30
2019-03-15T12:01:45.583Z,30
2019-03-15T12:02:26.999Z,25
2019-03-15T12:03:07.413Z,25
2019-03-15T12:03:53.150Z,20
2019-03-15T12:04:28.829Z,20
2019-03-15T12:05:09.281Z,20
2019-03-15T12:05:49.750Z,20
2019-03-15T12:06:30.189Z,15
2019-03-15T12:07:10.742Z,15
2019-03-15T12:07:51.325Z,20
2019-03-15T12:08:31.674Z,20
2019-03-15T12:09:13.122Z,20
2019-03-15T12:09:53.572Z,25
2019-03-15T12:10:34.087Z,30
2019-03-15T12:11:14.547Z,30
2019-03-15T12:11:56.062Z,30
2019-03-15T12:12:36.475Z,30
2019-03-15T12:19:00.836Z,25
2019-03-15T12:19:41.372Z,25
2019-03-15T12:22:22.724Z,25
2019-03-15T12:23:04.210Z,25
2019-03-15T12:23:44.721Z,30
2019-03-15T12:24:25.049Z,30
2019-03-15T12:25:06.460Z,25
2019-03-15T12:25:48.704Z,25
2019-03-15T12:26:39.667Z,25
2019-03-15T12:27:10.877Z,25
2019-03-15T12:27:51.248Z,30
2019-03-15T12:28:31.596Z,30
2019-03-15T12:29:12.934Z,30
2019-03-15T12:29:53.482Z,30
2019-03-15T12:30:35.716Z,35
2019-03-15T12:31:17.967Z,35
2019-03-15T12:32:00.303Z,35
2019-03-15T12:32:40.617Z,35
2019-03-15T12:33:24.415Z,40
2019-03-15T12:34:04.546Z,40
2019-03-15T12:34:45.185Z,35
2019-03-15T12:35:26.603Z,40
2019-03-15T12:36:06.956Z,40
2019-03-15T12:36:47.351Z,40
2019-03-15T12:37:28.772Z,45
2019-03-15T12:38:09.946Z,45
2019-03-15T12:38:50.408Z,45
2019-03-15T12:39:30.855Z,45
2019-03-15T12:40:11.301Z,40
2019-03-15T12:41:02.643Z,40
2019-03-15T12:41:43.054Z,30
2019-03-15T12:42:23.596Z,30
2019-03-15T12:43:04.096Z,30
2019-03-15T12:43:44.454Z,35
2019-03-15T12:44:24.899Z,30
2019-03-15T12:45:07.021Z,30
2019-03-15T12:45:48.362Z,30
2019-03-15T12:46:30.663Z,30
2019-03-15T12:47:11.236Z,25
2019-03-15T12:47:51.618Z,25
2019-03-15T12:48:32.995Z,25
2019-03-15T12:49:13.273Z,25
2019-03-15T12:49:53.728Z,25
2019-03-15T12:50:35.894Z,25
2019-03-15T12:51:31.186Z,20
2019-03-15T12:51:59.680Z,20
2019-03-15T12:52:46.823Z,15
2019-03-15T12:53:22.392Z,20
2019-03-15T12:54:02.928Z,15
2019-03-15T12:54:43.316Z,20
2019-03-15T12:55:23.775Z,20
2019-03-15T12:56:05.106Z,20
2019-03-15T12:56:53.411Z,20